Time;durP1;ratioP1;P1;durP2;ratioP2;P2;SDS_P1;SDS_P2;PMS_P1;PMS_P2;Temp;Humidity;BMP_temperature;BMP_pressure;BME280_temperature;BME280_humidity;BME280_pressure;Samples;Min_cycle;Max_cycle;Signal;HPM_P1;HPM_P2
2023/04/24 00:00:14;;;;;;;12.85;4.22;;;9.70;99.90;;;;;;5018395;28;20178;-85
2023/04/24 00:02:41;;;;;;;11.85;4.93;;;9.70;99.90;;;;;;5017630;28;20187;-85
2023/04/24 00:05:07;;;;;;;10.30;4.72;;;9.70;99.90;;;;;;5015786;28;20650;-86
2023/04/24 00:07:34;;;;;;;6.70;4.10;;;9.70;99.90;;;;;;5017104;28;20205;-86
2023/04/24 00:10:00;;;;;;;12.95;5.15;;;9.70;99.90;;;;;;5015767;28;20178;-86
2023/04/24 00:12:26;;;;;;;6.53;4.38;;;9.70;99.90;;;;;;4998806;28;20636;-86
2023/04/24 00:14:54;;;;;;;7.78;4.55;;;9.70;99.90;;;;;;5000122;28;20624;-86
2023/04/24 00:17:20;;;;;;;9.32;4.45;;;9.70;99.90;;;;;;5014971;28;20178;-86
2023/04/24 00:19:47;;;;;;;9.43;4.32;;;9.70;99.90;;;;;;5014958;28;20647;-86
2023/04/24 00:22:14;;;;;;;6.70;4.05;;;9.70;99.90;;;;;;5015163;28;20189;-86
2023/04/24 00:24:40;;;;;;;7.22;3.75;;;9.70;99.90;;;;;;5015540;28;20244;-86
2023/04/24 00:27:06;;;;;;;7.78;3.42;;;9.70;99.90;;;;;;5015716;28;20279;-85
2023/04/24 00:29:32;;;;;;;5.38;3.30;;;9.70;99.90;;;;;;5013944;28;20185;-86
2023/04/24 00:31:57;;;;;;;10.38;3.75;;;9.70;99.90;;;;;;5014577;28;20192;-86
2023/04/24 00:34:23;;;;;;;5.32;3.17;;;9.70;99.90;;;;;;4997638;28;20181;-86
2023/04/24 00:36:51;;;;;;;5.35;3.58;;;9.70;99.90;;;;;;5015236;28;20181;-86
2023/04/24 00:39:18;;;;;;;5.05;3.42;;;9.70;99.90;;;;;;5014132;28;20181;-86
2023/04/24 00:41:45;;;;;;;5.03;3.55;;;9.70;99.90;;;;;;5013662;28;20272;-86
2023/04/24 00:44:11;;;;;;;6.03;3.78;;;9.70;99.90;;;;;;5014796;28;20652;-86
2023/04/24 00:46:36;;;;;;;4.70;3.30;;;9.70;99.90;;;;;;5012650;28;20286;-86
2023/04/24 00:49:04;;;;;;;6.82;3.53;;;9.70;99.90;;;;;;5014394;28;20182;-86
2023/04/24 00:51:30;;;;;;;4.68;3.90;;;9.60;99.90;;;;;;5015840;28;20177;-85
2023/04/24 00:53:56;;;;;;;5.18;3.05;;;9.70;99.90;;;;;;5016132;28;20180;-85
2023/04/24 00:56:23;;;;;;;11.83;3.70;;;9.70;99.90;;;;;;5014198;28;20181;-86
2023/04/24 00:58:49;;;;;;;6.30;3.47;;;9.60;99.90;;;;;;5013818;28;20578;-86
2023/04/24 01:01:15;;;;;;;7.03;3.00;;;9.70;99.90;;;;;;5013947;28;20184;-86
2023/04/24 01:03:41;;;;;;;6.70;3.55;;;9.70;99.90;;;;;;4996601;28;20215;-86
2023/04/24 01:06:07;;;;;;;5.40;3.57;;;9.70;99.90;;;;;;5014417;28;20216;-86
2023/04/24 01:08:34;;;;;;;6.50;3.50;;;9.60;99.90;;;;;;5013176;28;20186;-85
2023/04/24 01:11:03;;;;;;;5.00;3.07;;;9.70;99.90;;;;;;5014814;28;20231;-86
2023/04/24 01:13:29;;;;;;;5.67;3.47;;;9.60;99.90;;;;;;5015926;28;20515;-86
2023/04/24 01:15:55;;;;;;;7.68;3.72;;;9.60;99.90;;;;;;4997526;28;20197;-86
2023/04/24 01:18:21;;;;;;;4.90;3.17;;;9.60;99.90;;;;;;4997859;28;20188;-86
2023/04/24 01:20:52;;;;;;;4.60;3.35;;;9.60;99.90;;;;;;5014511;28;20621;-85
2023/04/24 01:23:17;;;;;;;12.05;3.47;;;9.60;99.90;;;;;;5015071;28;20211;-86
2023/04/24 01:25:43;;;;;;;4.90;3.30;;;9.60;99.90;;;;;;5013833;28;20240;-86
2023/04/24 01:28:10;;;;;;;6.82;3.25;;;9.90;99.90;;;;;;5013319;28;20583;-86
2023/04/24 01:30:36;;;;;;;6.70;3.50;;;9.80;99.90;;;;;;5013076;28;20211;-86
2023/04/24 01:33:02;;;;;;;10.27;3.60;;;9.60;99.90;;;;;;5013484;28;20548;-86
2023/04/24 01:35:28;;;;;;;7.35;3.40;;;9.60;99.90;;;;;;5012495;28;20188;-85
2023/04/24 01:37:54;;;;;;;5.40;3.47;;;9.60;99.90;;;;;;5013864;28;20181;-85
2023/04/24 01:40:19;;;;;;;7.88;4.35;;;9.60;99.90;;;;;;5013890;28;20182;-85
2023/04/24 01:42:46;;;;;;;9.77;3.17;;;9.60;99.90;;;;;;5012470;28;20699;-85
2023/04/24 01:45:12;;;;;;;5.95;3.45;;;9.60;99.90;;;;;;5012505;28;20561;-86
2023/04/24 01:47:39;;;;;;;4.27;3.03;;;9.70;99.90;;;;;;5012645;28;20224;-85
2023/04/24 01:50:05;;;;;;;5.40;3.42;;;9.50;99.90;;;;;;5012284;28;20188;-85
2023/04/24 01:52:33;;;;;;;4.77;3.07;;;9.40;99.90;;;;;;4996054;28;20513;-85
2023/04/24 01:55:03;;;;;;;4.53;3.00;;;9.40;99.90;;;;;;5013639;28;20174;-86
2023/04/24 01:57:30;;;;;;;3.80;3.10;;;9.30;99.90;;;;;;5013431;28;20205;-84
2023/04/24 01:59:56;;;;;;;4.60;3.10;;;9.20;99.90;;;;;;5014977;28;20209;-85
2023/04/24 02:02:23;;;;;;;9.10;3.60;;;9.20;99.90;;;;;;5014158;28;20173;-85
2023/04/24 02:04:50;;;;;;;6.28;3.83;;;9.20;99.90;;;;;;5015005;28;20647;-85
2023/04/24 02:07:16;;;;;;;5.90;3.97;;;9.20;99.90;;;;;;4998494;28;20219;-86
2023/04/24 02:09:42;;;;;;;5.03;3.77;;;;;;;;;;5013459;28;20272;-86
2023/04/24 02:12:07;;;;;;;5.83;3.33;;;9.10;99.90;;;;;;5014510;28;20205;-86
2023/04/24 02:14:33;;;;;;;6.23;3.40;;;9.00;99.90;;;;;;5012970;28;20221;-86
2023/04/24 02:17:00;;;;;;;7.33;4.43;;;9.00;99.90;;;;;;4997309;28;20200;-85
2023/04/24 02:19:26;;;;;;;6.43;3.87;;;9.00;99.90;;;;;;5014671;28;20169;-86
2023/04/24 02:21:52;;;;;;;4.63;3.53;;;9.00;99.90;;;;;;5013447;28;20192;-86
2023/04/24 02:24:17;;;;;;;6.77;3.97;;;8.90;99.90;;;;;;5014933;28;20174;-86
2023/04/24 02:26:43;;;;;;;5.17;3.33;;;8.90;99.90;;;;;;5019640;28;20231;-85
2023/04/24 02:29:10;;;;;;;4.93;3.70;;;8.90;99.90;;;;;;5017222;28;20659;-86
2023/04/24 02:31:36;;;;;;;5.43;2.93;;;8.80;99.90;;;;;;4989626;28;20188;-86
2023/04/24 02:34:02;;;;;;;6.40;3.40;;;8.80;99.90;;;;;;5026764;28;20177;-86
2023/04/24 02:36:27;;;;;;;5.20;3.40;;;8.80;99.90;;;;;;5010987;28;20189;-86
2023/04/24 02:38:53;;;;;;;10.07;4.17;;;8.70;99.90;;;;;;5020843;28;20181;-86
2023/04/24 02:41:19;;;;;;;8.60;3.90;;;8.70;99.90;;;;;;5003132;28;20191;-85
2023/04/24 02:43:45;;;;;;;5.93;3.90;;;8.60;99.90;;;;;;4984384;28;20632;-86
2023/04/24 02:46:11;;;;;;;4.50;3.47;;;;;;;;;;5025675;28;20221;-85
2023/04/24 02:48:37;;;;;;;4.27;2.90;;;8.60;99.90;;;;;;5029969;28;20291;-85
2023/04/24 02:51:03;;;;;;;9.07;4.23;;;8.50;99.90;;;;;;5030298;28;20181;-86
2023/04/24 02:53:30;;;;;;;6.00;3.87;;;8.40;99.90;;;;;;5025078;28;20185;-85
2023/04/24 02:55:56;;;;;;;5.33;3.20;;;8.40;99.90;;;;;;5012900;28;20706;-86
2023/04/24 02:58:22;;;;;;;4.33;3.30;;;;;;;;;;4997227;28;20185;-85
2023/04/24 03:00:48;;;;;;;6.83;4.13;;;8.40;99.90;;;;;;5013244;28;20185;-85
2023/04/24 03:03:15;;;;;;;6.83;3.50;;;8.90;99.90;;;;;;4996372;28;20185;-85
2023/04/24 03:05:41;;;;;;;7.67;4.63;;;8.30;99.90;;;;;;5012867;28;20209;-85
2023/04/24 03:08:07;;;;;;;6.23;4.23;;;;;;;;;;4995931;28;20235;-86
2023/04/24 03:10:33;;;;;;;5.87;3.73;;;;;;;;;;5016791;28;20184;-85
2023/04/24 03:12:59;;;;;;;7.27;4.03;;;8.20;99.90;;;;;;5016576;28;20180;-84
2023/04/24 03:15:25;;;;;;;6.00;4.07;;;;;;;;;;5015334;28;20189;-85
2023/04/24 03:17:50;;;;;;;10.70;4.60;;;8.30;99.90;;;;;;5015429;28;20181;-85
2023/04/24 03:20:16;;;;;;;4.37;3.30;;;8.30;99.90;;;;;;5016284;28;20657;-85
2023/04/24 03:22:42;;;;;;;5.57;3.90;;;;;;;;;;4982744;28;20184;-85
2023/04/24 03:25:09;;;;;;;6.70;3.90;;;8.30;99.90;;;;;;5015943;28;20271;-85
2023/04/24 03:27:34;;;;;;;8.30;4.17;;;8.30;99.90;;;;;;4999026;28;20212;-85
2023/04/24 03:30:00;;;;;;;5.97;4.13;;;8.30;99.90;;;;;;5015278;28;20181;-85
2023/04/24 03:32:26;;;;;;;8.30;4.67;;;8.30;99.90;;;;;;5015055;28;20177;-85
2023/04/24 03:34:52;;;;;;;6.50;3.83;;;8.30;99.90;;;;;;5015230;28;20327;-85
2023/04/24 03:37:18;;;;;;;8.63;3.87;;;8.40;99.90;;;;;;5014689;28;20280;-85
2023/04/24 03:39:43;;;;;;;4.80;3.67;;;8.40;99.90;;;;;;4990856;28;20285;-84
2023/04/24 03:42:09;;;;;;;7.60;4.80;;;8.40;99.90;;;;;;5013581;28;20199;-85
2023/04/24 03:44:36;;;;;;;6.53;4.57;;;8.50;99.90;;;;;;4997526;28;20580;-85
2023/04/24 03:47:01;;;;;;;5.10;4.20;;;8.50;99.90;;;;;;5028233;28;20259;-83
2023/04/24 03:49:27;;;;;;;10.40;4.27;;;8.50;99.90;;;;;;5004764;28;20189;-84
2023/04/24 03:51:53;;;;;;;5.83;4.10;;;8.60;99.90;;;;;;5010760;28;20987;-83
2023/04/24 03:54:19;;;;;;;10.33;4.73;;;8.60;99.90;;;;;;5012110;28;20729;-84
2023/04/24 03:56:45;;;;;;;6.83;4.33;;;8.60;99.90;;;;;;5011996;28;20275;-84
2023/04/24 03:59:11;;;;;;;10.57;3.93;;;8.70;99.90;;;;;;5011598;28;20272;-84
2023/04/24 04:01:37;;;;;;;6.37;4.00;;;8.70;99.90;;;;;;5013558;28;20319;-84
2023/04/24 04:04:06;;;;;;;10.17;4.37;;;8.70;99.90;;;;;;5014507;28;20665;-85
2023/04/24 04:06:32;;;;;;;7.47;4.20;;;8.80;99.90;;;;;;5032011;28;20577;-83
2023/04/24 04:08:58;;;;;;;11.17;5.27;;;8.80;99.90;;;;;;5019112;28;20193;-84
2023/04/24 04:11:24;;;;;;;6.17;4.00;;;8.90;99.90;;;;;;5024949;28;20193;-85
2023/04/24 04:13:50;;;;;;;8.20;4.53;;;8.90;99.90;;;;;;5012107;28;20682;-84
2023/04/24 04:16:19;;;;;;;6.27;4.40;;;9.00;99.90;;;;;;5008623;28;20208;-85
2023/04/24 04:18:45;;;;;;;6.63;4.37;;;9.10;99.90;;;;;;5013925;28;20189;-85
2023/04/24 04:21:11;;;;;;;12.23;4.63;;;9.10;99.90;;;;;;4999782;28;20195;-84
2023/04/24 04:23:37;;;;;;;7.53;5.07;;;9.20;99.90;;;;;;5013239;28;20189;-85
2023/04/24 04:26:03;;;;;;;6.13;4.13;;;9.20;99.90;;;;;;5014273;28;20236;-85
2023/04/24 04:28:31;;;;;;;8.00;4.70;;;9.30;99.90;;;;;;5012304;28;20196;-85
2023/04/24 04:30:57;;;;;;;8.77;4.73;;;9.30;99.90;;;;;;5013001;28;20189;-86
2023/04/24 04:33:24;;;;;;;9.33;4.60;;;9.40;99.90;;;;;;4992884;28;20202;-86
2023/04/24 04:35:51;;;;;;;7.23;4.03;;;9.50;99.90;;;;;;5008326;28;20189;-86
2023/04/24 04:38:17;;;;;;;13.90;4.93;;;9.50;99.90;;;;;;5013425;28;20204;-86
2023/04/24 04:40:44;;;;;;;7.40;4.47;;;9.60;99.90;;;;;;5013886;28;20190;-86
2023/04/24 04:43:10;;;;;;;6.53;4.50;;;9.60;99.90;;;;;;5023134;28;20239;-86
2023/04/24 04:45:38;;;;;;;6.40;4.00;;;9.70;99.90;;;;;;4995712;28;20189;-85
2023/04/24 04:48:04;;;;;;;6.82;3.97;;;9.80;99.90;;;;;;4995903;28;20185;-85
2023/04/24 04:50:30;;;;;;;8.52;4.43;;;9.90;99.90;;;;;;5012910;28;20651;-85
2023/04/24 04:52:56;;;;;;;7.40;4.63;;;10.00;99.90;;;;;;5013096;28;20717;-84
2023/04/24 04:55:21;;;;;;;9.30;4.55;;;10.10;99.90;;;;;;5011329;28;20185;-84
2023/04/24 04:57:47;;;;;;;5.22;3.70;;;10.30;99.90;;;;;;4996148;28;20185;-85
2023/04/24 05:00:13;;;;;;;9.55;4.50;;;10.40;99.90;;;;;;5013200;28;20177;-86
2023/04/24 05:02:40;;;;;;;5.85;4.38;;;10.60;99.90;;;;;;5029561;28;20178;-84
2023/04/24 05:05:07;;;;;;;7.72;4.38;;;10.80;99.90;;;;;;5013204;28;20178;-85
2023/04/24 05:07:34;;;;;;;8.00;4.90;;;10.90;99.90;;;;;;5029178;28;20264;-85
2023/04/24 05:10:00;;;;;;;10.90;4.85;;;11.00;99.90;;;;;;4996578;28;20189;-85
2023/04/24 05:12:25;;;;;;;5.60;3.83;;;11.20;99.90;;;;;;5013933;28;20181;-84
2023/04/24 05:14:51;;;;;;;9.15;5.63;;;11.30;99.90;;;;;;5012830;28;20192;-85
2023/04/24 05:17:18;;;;;;;10.05;4.82;;;11.30;99.90;;;;;;5013715;28;20195;-85
2023/04/24 05:19:44;;;;;;;7.15;3.65;;;11.50;99.90;;;;;;5029606;28;20539;-86
2023/04/24 05:22:11;;;;;;;7.43;3.67;;;11.60;99.90;;;;;;5013842;28;20174;-86
2023/04/24 05:24:37;;;;;;;5.25;3.53;;;11.80;99.90;;;;;;5013268;28;20268;-85
2023/04/24 05:27:04;;;;;;;6.88;4.20;;;12.00;99.90;;;;;;4997938;28;20221;-85
2023/04/24 05:29:33;;;;;;;7.80;4.47;;;12.60;99.90;;;;;;5015762;28;20597;-84
2023/04/24 05:32:00;;;;;;;6.75;3.80;;;12.20;99.90;;;;;;5019612;28;20189;-85
2023/04/24 05:34:26;;;;;;;6.38;4.40;;;12.30;99.90;;;;;;5001652;28;20189;-86
2023/04/24 05:36:53;;;;;;;7.50;3.78;;;12.40;99.90;;;;;;5016889;28;20181;-86
2023/04/24 05:39:19;;;;;;;5.43;3.53;;;12.60;99.90;;;;;;5020543;28;20272;-86
2023/04/24 05:41:45;;;;;;;7.47;4.13;;;12.60;99.90;;;;;;5000640;28;20308;-87
2023/04/24 05:44:10;;;;;;;6.18;2.92;;;12.70;99.90;;;;;;5001114;28;20182;-85
2023/04/24 05:46:36;;;;;;;8.07;4.75;;;12.70;99.90;;;;;;5013626;28;20569;-86
2023/04/24 05:49:02;;;;;;;5.20;3.30;;;12.60;99.90;;;;;;5014438;28;20185;-85
2023/04/24 05:51:28;;;;;;;3.92;3.30;;;12.60;99.90;;;;;;5013790;28;20640;-85
2023/04/24 05:53:54;;;;;;;5.15;3.85;;;12.50;99.90;;;;;;5015748;28;20322;-85
2023/04/24 05:56:20;;;;;;;11.32;3.65;;;12.50;99.90;;;;;;5014357;28;20188;-85
2023/04/24 05:58:46;;;;;;;4.68;3.63;;;12.50;99.90;;;;;;5014187;28;20239;-85
2023/04/24 06:01:14;;;;;;;6.85;3.50;;;12.60;99.90;;;;;;4997390;28;20180;-85
2023/04/24 06:03:40;;;;;;;4.22;3.35;;;12.80;99.90;;;;;;5014337;28;20177;-85
2023/04/24 06:06:06;;;;;;;4.10;3.25;;;12.90;99.90;;;;;;4997291;28;20217;-84
2023/04/24 06:08:32;;;;;;;7.68;3.67;;;13.20;99.90;;;;;;5014013;28;20177;-84
2023/04/24 06:10:58;;;;;;;5.43;3.47;;;13.30;99.90;;;;;;5013385;28;20184;-85
2023/04/24 06:13:24;;;;;;;9.70;3.30;;;13.50;99.90;;;;;;5012610;28;20181;-85
2023/04/24 06:15:50;;;;;;;5.13;3.28;;;13.70;99.80;;;;;;4995819;28;20185;-85
2023/04/24 06:18:15;;;;;;;5.40;3.75;;;13.80;99.90;;;;;;5011693;28;20196;-85
2023/04/24 06:20:41;;;;;;;6.60;4.13;;;13.90;97.50;;;;;;4995337;28;20185;-84
2023/04/24 06:23:07;;;;;;;4.63;3.08;;;14.10;97.80;;;;;;5012091;28;20193;-85
2023/04/24 06:25:33;;;;;;;4.80;3.58;;;14.20;97.10;;;;;;5012876;28;20282;-85
2023/04/24 06:27:58;;;;;;;4.88;3.60;;;14.40;96.20;;;;;;5012202;28;20541;-85
2023/04/24 06:30:24;;;;;;;5.22;3.35;;;14.50;94.20;;;;;;5013063;28;20255;-85
2023/04/24 06:32:50;;;;;;;5.63;3.38;;;14.60;93.60;;;;;;5012181;28;20185;-85
2023/04/24 06:35:16;;;;;;;6.60;3.38;;;14.70;93.30;;;;;;5011941;28;20188;-85
2023/04/24 06:37:42;;;;;;;9.40;3.72;;;14.80;93.50;;;;;;5011939;28;20185;-85
2023/04/24 06:40:09;;;;;;;4.65;3.50;;;14.90;92.60;;;;;;5012611;28;20181;-85
2023/04/24 06:42:36;;;;;;;4.63;3.13;;;17.70;93.80;;;;;;5012989;28;20182;-84
2023/04/24 06:45:02;;;;;;;5.00;3.65;;;15.10;92.70;;;;;;5017049;28;20181;-85
2023/04/24 06:47:27;;;;;;;6.93;3.40;;;15.20;92.10;;;;;;5016625;28;20212;-85
2023/04/24 06:49:53;;;;;;;9.10;3.00;;;15.30;92.10;;;;;;4999882;28;20247;-85
2023/04/24 06:52:19;;;;;;;3.67;3.28;;;15.40;91.00;;;;;;5017426;28;20177;-85
2023/04/24 06:54:45;;;;;;;3.78;2.85;;;15.50;91.30;;;;;;5015937;28;20185;-86
2023/04/24 06:57:12;;;;;;;6.90;3.55;;;15.60;90.60;;;;;;5017314;28;20184;-85
2023/04/24 06:59:38;;;;;;;3.53;3.20;;;15.70;89.40;;;;;;5017595;28;20209;-86
2023/04/24 07:02:04;;;;;;;5.25;3.08;;;15.70;86.80;;;;;;5020301;28;20537;-84
2023/04/24 07:04:30;;;;;;;3.78;2.75;;;15.80;87.80;;;;;;5022095;28;20177;-85
2023/04/24 07:06:57;;;;;;;4.80;3.30;;;15.80;85.70;;;;;;5043227;28;20201;-88
2023/04/24 07:09:25;;;;;;;5.55;3.55;;;16.00;86.30;;;;;;5030268;28;20212;-88
2023/04/24 07:11:51;;;;;;;5.40;3.47;;;16.10;86.30;;;;;;5031096;28;20200;-89
2023/04/24 07:14:17;;;;;;;5.00;3.13;;;16.10;85.50;;;;;;5026794;28;20181;-88
2023/04/24 07:16:43;;;;;;;4.85;3.22;;;16.30;85.30;;;;;;5025128;28;20165;-88
2023/04/24 07:19:09;;;;;;;4.60;3.00;;;16.40;88.40;;;;;;5026755;28;20196;-86
2023/04/24 07:21:35;;;;;;;4.68;3.10;;;16.70;86.20;;;;;;5023446;28;20173;-86
2023/04/24 07:24:01;;;;;;;4.80;3.20;;;16.60;84.30;;;;;;5022289;28;20259;-87
2023/04/24 07:26:29;;;;;;;5.55;2.95;;;16.60;82.90;;;;;;5019260;28;20233;-85
2023/04/24 07:28:55;;;;;;;8.25;3.78;;;16.70;80.50;;;;;;5017505;28;20173;-86
2023/04/24 07:31:21;;;;;;;4.22;3.20;;;16.60;81.50;;;;;;4999735;28;20192;-87
2023/04/24 07:33:47;;;;;;;5.85;3.30;;;16.80;82.10;;;;;;5015345;28;20196;-85
2023/04/24 07:36:16;;;;;;;4.18;3.15;;;16.90;80.80;;;;;;5015095;28;20631;-85
2023/04/24 07:38:43;;;;;;;5.97;3.47;;;17.10;80.80;;;;;;5016835;28;20181;-85
2023/04/24 07:41:08;;;;;;;6.32;3.15;;;17.20;78.50;;;;;;5014686;28;20213;-86
2023/04/24 07:43:34;;;;;;;4.03;3.20;;;17.20;80.60;;;;;;5014307;28;20208;-87
2023/04/24 07:46:00;;;;;;;3.58;2.70;;;17.10;79.00;;;;;;5016370;28;20218;-88
2023/04/24 07:48:26;;;;;;;6.40;3.75;;;17.20;80.70;;;;;;5017296;28;20292;-87
2023/04/24 07:50:52;;;;;;;5.43;3.25;;;17.30;80.80;;;;;;5014587;28;20185;-87
2023/04/24 07:53:18;;;;;;;4.30;3.10;;;17.40;78.70;;;;;;5015865;28;20173;-87
2023/04/24 07:55:44;;;;;;;3.78;2.78;;;17.50;77.30;;;;;;4997012;28;20192;-87
2023/04/24 07:58:10;;;;;;;8.75;3.50;;;17.60;77.20;;;;;;4998630;28;20185;-87
2023/04/24 08:00:36;;;;;;;4.97;3.45;;;17.50;76.40;;;;;;5015077;28;20181;-87
2023/04/24 08:03:01;;;;;;;9.98;3.38;;;17.60;76.30;;;;;;5015183;28;20228;-87
2023/04/24 08:05:28;;;;;;;5.90;3.50;;;17.50;74.50;;;;;;4998427;28;20193;-87
2023/04/24 08:07:55;;;;;;;3.40;2.63;;;17.50;75.40;;;;;;5016055;28;20244;-87
2023/04/24 08:10:24;;;;;;;7.05;3.72;;;17.60;77.40;;;;;;5014675;28;20177;-87
2023/04/24 08:12:49;;;;;;;6.18;3.13;;;17.60;77.30;;;;;;5015518;28;20548;-88
2023/04/24 08:15:15;;;;;;;6.40;3.38;;;17.60;77.60;;;;;;5014541;28;20189;-88
2023/04/24 08:17:41;;;;;;;17.40;3.38;;;17.70;76.30;;;;;;5015130;28;20174;-88
2023/04/24 08:20:13;;;;;;;7.45;3.38;;;17.90;79.00;;;;;;5031572;28;20189;-88
2023/04/24 08:22:40;;;;;;;4.65;3.15;;;18.10;76.20;;;;;;5014089;28;20169;-88
2023/04/24 08:25:06;;;;;;;5.78;3.40;;;18.00;72.30;;;;;;5021256;28;20233;-87
2023/04/24 08:27:32;;;;;;;5.95;3.40;;;18.10;75.00;;;;;;5019579;28;20201;-86
2023/04/24 08:30:01;;;;;;;4.50;2.92;;;18.30;75.80;;;;;;5018216;28;20208;-87
2023/04/24 08:32:29;;;;;;;5.15;2.72;;;18.40;75.70;;;;;;5018613;28;20228;-87
2023/04/24 08:34:56;;;;;;;5.57;3.50;;;18.60;74.30;;;;;;5013938;28;20182;-87
2023/04/24 08:37:22;;;;;;;4.40;2.78;;;18.60;71.30;;;;;;5013935;28;20180;-87
2023/04/24 08:39:49;;;;;;;3.97;3.03;;;18.50;73.80;;;;;;5013550;28;20185;-87
2023/04/24 08:42:17;;;;;;;5.18;3.45;;;18.60;71.90;;;;;;4997410;28;20205;-87
2023/04/24 08:44:44;;;;;;;5.35;3.00;;;18.70;72.50;;;;;;5013759;28;20703;-87
2023/04/24 08:47:10;;;;;;;3.50;2.47;;;18.80;72.30;;;;;;5014779;28;20237;-87
2023/04/24 08:49:37;;;;;;;4.68;2.88;;;18.80;70.40;;;;;;5033227;28;20192;-87
2023/04/24 08:52:03;;;;;;;4.00;2.67;;;18.70;70.80;;;;;;5031603;28;20184;-88
2023/04/24 08:54:29;;;;;;;4.55;3.78;;;18.90;73.70;;;;;;5014635;28;20177;-89
2023/04/24 08:57:01;;;;;;;4.95;3.60;;;19.20;71.30;;;;;;5016118;28;20181;-89
2023/04/24 08:59:28;;;;;;;3.65;2.80;;;19.20;67.80;;;;;;5018412;28;20161;-88
2023/04/24 09:01:55;;;;;;;4.47;2.83;;;19.30;68.10;;;;;;5014242;28;20312;-88
2023/04/24 09:04:24;;;;;;;3.20;2.40;;;19.40;64.50;;;;;;5013486;28;20631;-88
2023/04/24 09:06:57;;;;;;;3.22;2.58;;;19.30;64.20;;;;;;5005032;28;20201;-87
2023/04/24 09:09:24;;;;;;;5.75;2.97;;;19.30;65.50;;;;;;5026756;28;20620;-86
2023/04/24 09:11:53;;;;;;;5.43;3.20;;;19.50;67.10;;;;;;5026760;28;20201;-87
2023/04/24 09:14:19;;;;;;;5.93;3.03;;;19.70;64.10;;;;;;5025719;28;20193;-87
2023/04/24 09:16:46;;;;;;;4.75;3.45;;;20.00;65.30;;;;;;5022634;28;20340;-87
2023/04/24 09:19:12;;;;;;;6.30;3.15;;;20.00;62.00;;;;;;5021548;28;20200;-87
2023/04/24 09:21:38;;;;;;;4.68;3.00;;;20.10;64.10;;;;;;5013463;28;20177;-87
2023/04/24 09:24:06;;;;;;;3.90;2.75;;;20.30;64.50;;;;;;5013436;28;20196;-87
2023/04/24 09:26:36;;;;;;;6.78;2.65;;;20.40;63.90;;;;;;4996797;28;20260;-87
2023/04/24 09:29:04;;;;;;;4.57;3.00;;;20.40;62.60;;;;;;5012450;28;20185;-87
2023/04/24 09:31:30;;;;;;;3.78;2.75;;;20.40;62.60;;;;;;5012987;28;20235;-88
2023/04/24 09:33:57;;;;;;;4.35;2.65;;;20.50;61.90;;;;;;5012791;28;20181;-86
2023/04/24 09:36:41;;;;;;;4.65;2.88;;;20.60;61.00;;;;;;5012986;28;20235;-88
2023/04/24 09:39:12;;;;;;;4.70;3.70;;;20.60;59.90;;;;;;5012270;28;20199;-87
2023/04/24 09:41:50;;;;;;;5.85;2.80;;;20.70;62.30;;;;;;5015140;28;20236;-88
2023/04/24 09:44:21;;;;;;;3.88;2.47;;;20.90;63.00;;;;;;5013161;28;20519;-88
2023/04/24 09:46:56;;;;;;;5.82;3.00;;;21.00;59.00;;;;;;5013690;28;20219;-87
2023/04/24 09:49:25;;;;;;;4.03;3.03;;;21.00;60.00;;;;;;5013677;28;20169;-86
2023/04/24 09:51:52;;;;;;;7.03;3.25;;;21.20;59.90;;;;;;5012591;28;20181;-86
2023/04/24 09:54:20;;;;;;;3.50;2.80;;;21.40;60.50;;;;;;5012024;28;20185;-86
2023/04/24 09:56:48;;;;;;;4.20;3.20;;;21.60;59.90;;;;;;5014212;28;20197;-86
2023/04/24 09:59:15;;;;;;;3.95;2.80;;;21.60;59.50;;;;;;5013468;28;20235;-86
2023/04/24 10:01:42;;;;;;;5.55;3.10;;;21.70;59.50;;;;;;5019480;28;20208;-84
2023/04/24 10:04:18;;;;;;;8.27;3.08;;;21.90;56.80;;;;;;5012286;28;20185;-85
2023/04/24 10:06:44;;;;;;;3.50;2.50;;;21.60;56.10;;;;;;5012083;28;20741;-88
2023/04/24 10:09:11;;;;;;;4.03;3.08;;;21.30;58.30;;;;;;5013311;28;20177;-86
2023/04/24 10:11:41;;;;;;;3.60;2.70;;;21.50;58.10;;;;;;5012231;28;20178;-87
2023/04/24 10:14:08;;;;;;;4.28;2.70;;;21.60;56.90;;;;;;5012942;28;20177;-87
2023/04/24 10:16:34;;;;;;;4.75;2.55;;;21.70;56.20;;;;;;5011932;28;20217;-87
2023/04/24 10:19:02;;;;;;;4.75;2.88;;;21.90;55.60;;;;;;5014076;28;20184;-87
2023/04/24 10:21:28;;;;;;;4.25;2.47;;;21.80;54.60;;;;;;5000074;28;20185;-87
2023/04/24 10:23:53;;;;;;;6.07;2.78;;;21.70;53.70;;;;;;5016218;28;20706;-86
2023/04/24 10:26:20;;;;;;;5.47;2.63;;;22.00;54.90;;;;;;5015735;28;20606;-87
2023/04/24 10:28:46;;;;;;;5.78;2.97;;;22.10;53.90;;;;;;5016462;28;20189;-85
2023/04/24 10:31:13;;;;;;;3.63;2.55;;;22.30;55.60;;;;;;5017522;28;20173;-87
2023/04/24 10:33:42;;;;;;;4.18;2.97;;;22.50;54.30;;;;;;5016373;28;20173;-89
2023/04/24 10:36:09;;;;;;;4.07;2.70;;;22.60;55.00;;;;;;5032125;28;20221;-87
2023/04/24 10:38:36;;;;;;;4.13;3.47;;;22.50;51.90;;;;;;4999828;28;20181;-87
2023/04/24 10:41:13;;;;;;;4.47;2.72;;;22.60;53.50;;;;;;5015705;28;20181;-88
2023/04/24 10:43:40;;;;;;;4.25;2.33;;;22.60;52.80;;;;;;5000265;28;20234;-86
2023/04/24 10:46:06;;;;;;;3.58;2.40;;;22.70;52.30;;;;;;5016678;28;20304;-85
2023/04/24 10:48:33;;;;;;;3.45;2.33;;;22.70;52.60;;;;;;5015765;28;20609;-84
2023/04/24 10:50:59;;;;;;;4.10;3.17;;;22.80;51.30;;;;;;5016589;28;20184;-85
2023/04/24 10:53:29;;;;;;;4.30;2.33;;;22.30;52.70;;;;;;5018352;28;20169;-85
2023/04/24 10:56:03;;;;;;;3.45;2.83;;;21.90;49.30;;;;;;5016656;28;20177;-86
2023/04/24 10:58:47;;;;;;;5.50;2.58;;;21.80;51.20;;;;;;5016625;28;20177;-86
2023/04/24 11:01:31;;;;;;;3.47;2.05;;;22.30;52.10;;;;;;5019980;28;20165;-87
2023/04/24 11:04:02;;;;;;;4.30;2.65;;;22.80;50.30;;;;;;5034351;28;20538;-87
2023/04/24 11:06:36;;;;;;;4.50;2.40;;;23.10;50.10;;;;;;5016181;28;20670;-88
2023/04/24 11:09:16;;;;;;;3.67;2.28;;;23.00;49.30;;;;;;5017880;28;20166;-87
2023/04/24 11:11:46;;;;;;;2.88;2.30;;;22.90;49.90;;;;;;5001812;28;20208;-86
2023/04/24 11:14:15;;;;;;;3.15;2.33;;;22.90;49.40;;;;;;5016393;28;20177;-88
2023/04/24 11:17:07;;;;;;;4.28;2.85;;;23.10;48.60;;;;;;5016353;28;20196;-87
2023/04/24 11:19:36;;;;;;;6.53;2.72;;;23.20;49.50;;;;;;4996272;28;20699;-87
2023/04/24 11:22:04;;;;;;;4.50;2.78;;;23.40;48.10;;;;;;5016886;28;20180;-87
2023/04/24 11:24:37;;;;;;;4.25;2.40;;;23.50;47.70;;;;;;5015987;28;20221;-87
2023/04/24 11:27:06;;;;;;;6.53;3.00;;;23.50;48.50;;;;;;5015043;28;20209;-88
2023/04/24 11:30:00;;;;;;;5.43;2.67;;;23.70;48.80;;;;;;5016463;28;20220;-88
2023/04/24 11:32:35;;;;;;;4.18;2.42;;;23.90;46.50;;;;;;5012497;28;20554;-88
2023/04/24 11:35:16;;;;;;;3.38;2.50;;;23.60;47.40;;;;;;5015162;28;20198;-87
2023/04/24 11:37:48;;;;;;;3.67;2.28;;;23.60;45.00;;;;;;5015066;28;20185;-87
2023/04/24 11:40:15;;;;;;;4.20;2.75;;;23.20;45.80;;;;;;5016547;28;20166;-88
2023/04/24 11:42:45;;;;;;;3.70;2.55;;;23.00;45.30;;;;;;5016692;28;20181;-87
2023/04/24 11:45:12;;;;;;;2.92;2.55;;;23.20;47.60;;;;;;5017944;28;20173;-87
2023/04/24 11:47:38;;;;;;;4.15;2.47;;;23.50;46.30;;;;;;5021725;28;20205;-87
2023/04/24 11:50:10;;;;;;;3.08;2.22;;;23.50;44.40;;;;;;5019894;28;20181;-87
2023/04/24 11:52:41;;;;;;;3.47;2.58;;;23.20;45.10;;;;;;5018178;28;20247;-87
2023/04/24 11:55:12;;;;;;;4.32;2.60;;;23.50;46.00;;;;;;5016370;28;20586;-87
2023/04/24 11:57:37;;;;;;;3.33;2.50;;;23.90;44.80;;;;;;5014735;28;20185;-87
2023/04/24 12:00:05;;;;;;;3.92;2.28;;;24.20;43.90;;;;;;5014624;28;20189;-87
2023/04/24 12:02:30;;;;;;;3.95;2.50;;;24.10;41.80;;;;;;5014772;28;20203;-88
2023/04/24 12:04:56;;;;;;;2.58;2.30;;;23.90;44.40;;;;;;5014818;28;20643;-87
2023/04/24 12:07:23;;;;;;;3.42;2.55;;;23.70;46.70;;;;;;5014928;28;20220;-87
2023/04/24 12:10:00;;;;;;;4.10;2.45;;;23.60;44.70;;;;;;5016805;28;20177;-85
2023/04/24 12:12:27;;;;;;;3.13;2.30;;;23.40;42.60;;;;;;5017924;28;20179;-85
2023/04/24 12:14:57;;;;;;;3.58;2.55;;;23.20;43.10;;;;;;5016236;28;20229;-90
2023/04/24 12:17:28;;;;;;;2.83;1.92;;;23.20;45.50;;;;;;5015261;28;20169;-85
2023/04/24 12:20:05;;;;;;;3.28;2.30;;;22.90;44.70;;;;;;5015207;28;20689;-87
2023/04/24 12:22:48;;;;;;;2.58;2.25;;;22.80;45.90;;;;;;5013878;28;20227;-87
2023/04/24 12:25:18;;;;;;;4.35;2.53;;;22.90;45.90;;;;;;5015027;28;20229;-85
2023/04/24 12:27:45;;;;;;;3.15;2.53;;;22.90;44.40;;;;;;5015469;28;20296;-87
2023/04/24 12:30:14;;;;;;;4.45;2.55;;;23.10;45.70;;;;;;5015289;28;20181;-87
2023/04/24 12:32:51;;;;;;;3.80;2.40;;;23.50;45.40;;;;;;5030143;28;20174;-89
2023/04/24 12:35:22;;;;;;;5.28;2.67;;;23.50;43.40;;;;;;4997489;28;20196;-88
2023/04/24 12:37:48;;;;;;;3.88;2.20;;;23.60;44.70;;;;;;5013688;28;20227;-86
2023/04/24 12:40:17;;;;;;;3.85;2.67;;;23.40;44.30;;;;;;5014026;28;20639;-87
2023/04/24 12:42:45;;;;;;;3.10;2.20;;;23.50;44.20;;;;;;5013154;28;20647;-89
2023/04/24 12:45:12;;;;;;;4.00;2.83;;;24.00;46.10;;;;;;5015367;28;20185;-88
2023/04/24 12:47:39;;;;;;;2.70;2.30;;;24.20;43.10;;;;;;5013581;28;20205;-88
2023/04/24 12:50:06;;;;;;;3.47;2.92;;;24.30;44.60;;;;;;5019678;28;20185;-85
2023/04/24 12:52:31;;;;;;;3.58;2.47;;;24.70;44.90;;;;;;5017451;28;20188;-85